sensor_id;sensor_type;location;lat;lon;timestamp;pressure;altitude;pressure_sealevel;temperature;humidity
54882;BME280;40775;51.448;4.742;2022-12-20T00:01:31;101294.53;;;9.54;100.00
54882;BME280;40775;51.448;4.742;2022-12-20T00:04:02;101297.25;;;9.57;100.00
54882;BME280;40775;51.448;4.742;2022-12-20T00:06:29;101287.78;;;9.61;100.00
54882;BME280;40775;51.448;4.742;2022-12-20T00:08:59;101285.25;;;9.64;100.00
54882;BME280;40775;51.448;4.742;2022-12-20T00:11:28;101279.91;;;9.61;100.00
54882;BME280;40775;51.448;4.742;2022-12-20T00:13:56;101282.63;;;9.64;100.00
54882;BME280;40775;51.448;4.742;2022-12-20T00:16:26;101290.56;;;9.67;100.00
54882;BME280;40775;51.448;4.742;2022-12-20T00:18:57;101283.59;;;9.68;100.00
54882;BME280;40775;51.448;4.742;2022-12-20T00:21:25;101268.75;;;9.68;100.00
54882;BME280;40775;51.448;4.742;2022-12-20T00:23:53;101277.56;;;9.70;100.00
54882;BME280;40775;51.448;4.742;2022-12-20T00:26:24;101271.53;;;9.73;100.00
54882;BME280;40775;51.448;4.742;2022-12-20T00:28:52;101275.06;;;9.75;100.00
54882;BME280;40775;51.448;4.742;2022-12-20T00:31:21;101262.00;;;9.76;100.00
54882;BME280;40775;51.448;4.742;2022-12-20T00:33:52;101269.06;;;9.79;100.00
54882;BME280;40775;51.448;4.742;2022-12-20T00:36:21;101265.66;;;9.81;100.00
54882;BME280;40775;51.448;4.742;2022-12-20T00:38:50;101260.38;;;9.80;100.00
54882;BME280;40775;51.448;4.742;2022-12-20T00:41:21;101265.66;;;9.81;100.00
54882;BME280;40775;51.448;4.742;2022-12-20T00:43:49;101262.16;;;9.81;100.00
54882;BME280;40775;51.448;4.742;2022-12-20T00:46:17;101269.97;;;9.79;100.00
54882;BME280;40775;51.448;4.742;2022-12-20T00:48:45;101262.94;;;9.78;100.00
54882;BME280;40775;51.448;4.742;2022-12-20T00:51:15;101278.59;;;9.75;100.00
54882;BME280;40775;51.448;4.742;2022-12-20T00:53:43;101278.53;;;9.74;100.00
54882;BME280;40775;51.448;4.742;2022-12-20T00:56:11;101287.28;;;9.74;100.00
54882;BME280;40775;51.448;4.742;2022-12-20T00:58:41;101283.75;;;9.72;100.00
54882;BME280;40775;51.448;4.742;2022-12-20T01:01:22;101283.69;;;9.71;100.00
54882;BME280;40775;51.448;4.742;2022-12-20T01:03:51;101275.78;;;9.69;100.00
54882;BME280;40775;51.448;4.742;2022-12-20T01:06:19;101276.63;;;9.68;100.00
54882;BME280;40775;51.448;4.742;2022-12-20T01:08:46;101280.13;;;9.69;100.00
54882;BME280;40775;51.448;4.742;2022-12-20T01:11:34;101278.38;;;9.68;100.00
54882;BME280;40775;51.448;4.742;2022-12-20T01:14:07;101275.69;;;9.66;100.00
54882;BME280;40775;51.448;4.742;2022-12-20T01:16:37;101256.47;;;9.66;100.00
54882;BME280;40775;51.448;4.742;2022-12-20T01:19:07;101252.81;;;9.60;100.00
54882;BME280;40775;51.448;4.742;2022-12-20T01:21:34;101252.81;;;9.60;100.00
54882;BME280;40775;51.448;4.742;2022-12-20T01:24:01;101254.59;;;9.62;100.00
54882;BME280;40775;51.448;4.742;2022-12-20T01:26:29;101259.84;;;9.62;100.00
54882;BME280;40775;51.448;4.742;2022-12-20T01:28:58;101263.38;;;9.64;100.00
54882;BME280;40775;51.448;4.742;2022-12-20T01:31:27;101271.16;;;9.60;100.00
54882;BME280;40775;51.448;4.742;2022-12-20T01:33:55;101257.25;;;9.63;100.00
54882;BME280;40775;51.448;4.742;2022-12-20T01:36:32;101257.25;;;9.63;100.00
54882;BME280;40775;51.448;4.742;2022-12-20T01:39:07;101263.38;;;9.64;100.00
54882;BME280;40775;51.448;4.742;2022-12-20T01:41:37;101265.16;;;9.65;100.00
54882;BME280;40775;51.448;4.742;2022-12-20T01:46:52;101252.06;;;9.65;100.00
54882;BME280;40775;51.448;4.742;2022-12-20T01:49:34;101253.84;;;9.66;100.00
54882;BME280;40775;51.448;4.742;2022-12-20T01:52:16;101240.69;;;9.64;100.00
54882;BME280;40775;51.448;4.742;2022-12-20T01:54:55;101235.44;;;9.64;100.00
54882;BME280;40775;51.448;4.742;2022-12-20T01:57:47;101238.91;;;9.63;100.00
54882;BME280;40775;51.448;4.742;2022-12-20T02:00:15;101237.22;;;9.65;100.00
54882;BME280;40775;51.448;4.742;2022-12-20T02:02:46;101235.41;;;9.63;100.00
54882;BME280;40775;51.448;4.742;2022-12-20T02:05:17;101228.47;;;9.65;100.00
54882;BME280;40775;51.448;4.742;2022-12-20T02:07:48;101232.91;;;9.67;100.00
54882;BME280;40775;51.448;4.742;2022-12-20T02:10:17;101220.69;;;9.68;100.00
54882;BME280;40775;51.448;4.742;2022-12-20T02:12:46;101216.47;;;9.73;100.00
54882;BME280;40775;51.448;4.742;2022-12-20T02:15:54;101213.00;;;9.74;100.00
54882;BME280;40775;51.448;4.742;2022-12-20T02:18:42;101192.03;;;9.74;100.00
54882;BME280;40775;51.448;4.742;2022-12-20T02:27:50;101203.56;;;9.80;100.00
54882;BME280;40775;51.448;4.742;2022-12-20T02:30:22;101222.69;;;9.76;100.00
54882;BME280;40775;51.448;4.742;2022-12-20T02:33:03;101215.78;;;9.80;100.00
54882;BME280;40775;51.448;4.742;2022-12-20T02:35:35;101220.28;;;9.84;100.00
54882;BME280;40775;51.448;4.742;2022-12-20T02:38:28;101210.69;;;9.84;100.00
54882;BME280;40775;51.448;4.742;2022-12-20T02:43:30;101199.50;;;9.90;100.00
54882;BME280;40775;51.448;4.742;2022-12-20T02:46:19;101203.06;;;9.92;100.00
54882;BME280;40775;51.448;4.742;2022-12-20T02:48:47;101195.22;;;9.94;100.00
54882;BME280;40775;51.448;4.742;2022-12-20T02:51:17;101192.72;;;9.98;100.00
54882;BME280;40775;51.448;4.742;2022-12-20T02:53:45;101193.63;;;9.99;100.00
54882;BME280;40775;51.448;4.742;2022-12-20T02:56:18;101197.06;;;9.96;100.00
54882;BME280;40775;51.448;4.742;2022-12-20T02:59:06;101184.91;;;10.00;100.00
54882;BME280;40775;51.448;4.742;2022-12-20T03:01:46;101179.56;;;9.97;100.00
54882;BME280;40775;51.448;4.742;2022-12-20T03:04:17;101178.69;;;9.96;100.00
54882;BME280;40775;51.448;4.742;2022-12-20T03:07:06;101191.84;;;9.98;100.00
54882;BME280;40775;51.448;4.742;2022-12-20T03:09:38;101187.53;;;10.00;100.00
54882;BME280;40775;51.448;4.742;2022-12-20T03:12:08;101195.59;;;10.07;100.00
54882;BME280;40775;51.448;4.742;2022-12-20T03:14:35;101185.06;;;10.06;100.00
54882;BME280;40775;51.448;4.742;2022-12-20T03:17:02;101186.03;;;10.09;100.00
54882;BME280;40775;51.448;4.742;2022-12-20T03:19:30;101173.78;;;10.08;100.00
54882;BME280;40775;51.448;4.742;2022-12-20T03:21:57;101174.69;;;10.10;100.00
54882;BME280;40775;51.448;4.742;2022-12-20T03:24:25;101179.94;;;10.10;100.00
54882;BME280;40775;51.448;4.742;2022-12-20T03:26:52;101181.69;;;10.10;100.00
54882;BME280;40775;51.448;4.742;2022-12-20T03:29:19;101191.28;;;10.09;100.00
54882;BME280;40775;51.448;4.742;2022-12-20T03:31:46;101189.59;;;10.11;100.00
54882;BME280;40775;51.448;4.742;2022-12-20T03:34:13;101200.13;;;10.13;100.00
54882;BME280;40775;51.448;4.742;2022-12-20T03:36:41;101197.63;;;10.16;100.00
54882;BME280;40775;51.448;4.742;2022-12-20T03:39:08;101209.94;;;10.18;100.00
54882;BME280;40775;51.448;4.742;2022-12-20T03:41:35;101203.75;;;10.16;100.00
54882;BME280;40775;51.448;4.742;2022-12-20T03:44:02;101195.03;;;10.17;100.00
54882;BME280;40775;51.448;4.742;2022-12-20T03:46:29;101174.97;;;10.19;100.00
54882;BME280;40775;51.448;4.742;2022-12-20T03:48:58;101170.56;;;10.18;100.00
54882;BME280;40775;51.448;4.742;2022-12-20T03:51:24;101185.53;;;10.21;100.00
54882;BME280;40775;51.448;4.742;2022-12-20T03:53:51;101175.84;;;10.20;100.00
54882;BME280;40775;51.448;4.742;2022-12-20T03:56:18;101188.03;;;10.18;100.00
54882;BME280;40775;51.448;4.742;2022-12-20T03:58:46;101182.84;;;10.19;100.00
54882;BME280;40775;51.448;4.742;2022-12-20T04:01:22;101193.44;;;10.23;100.00
54882;BME280;40775;51.448;4.742;2022-12-20T04:03:49;101201.34;;;10.24;100.00
54882;BME280;40775;51.448;4.742;2022-12-20T04:06:18;101195.31;;;10.27;100.00
54882;BME280;40775;51.448;4.742;2022-12-20T04:08:45;101190.97;;;10.29;100.00
54882;BME280;40775;51.448;4.742;2022-12-20T04:11:12;101185.69;;;10.27;100.00
54882;BME280;40775;51.448;4.742;2022-12-20T04:13:51;101174.31;;;10.27;100.00
54882;BME280;40775;51.448;4.742;2022-12-20T04:16:22;101178.75;;;10.29;100.00
54882;BME280;40775;51.448;4.742;2022-12-20T04:18:50;101174.41;;;10.30;100.00
54882;BME280;40775;51.448;4.742;2022-12-20T04:21:26;101173.59;;;10.32;100.00
54882;BME280;40775;51.448;4.742;2022-12-20T04:23:54;101177.94;;;10.32;100.00
54882;BME280;40775;51.448;4.742;2022-12-20T04:26:22;101163.97;;;10.33;100.00
54882;BME280;40775;51.448;4.742;2022-12-20T04:28:49;101167.44;;;10.32;100.00
54882;BME280;40775;51.448;4.742;2022-12-20T04:31:16;101160.38;;;10.29;100.00
54882;BME280;40775;51.448;4.742;2022-12-20T04:33:50;101151.69;;;10.32;100.00
54882;BME280;40775;51.448;4.742;2022-12-20T04:36:17;101151.66;;;10.30;100.00
54882;BME280;40775;51.448;4.742;2022-12-20T04:38:44;101151.63;;;10.29;100.00
54882;BME280;40775;51.448;4.742;2022-12-20T04:41:11;101144.59;;;10.28;100.00
54882;BME280;40775;51.448;4.742;2022-12-20T04:43:55;101146.38;;;10.29;100.00
54882;BME280;40775;51.448;4.742;2022-12-20T04:46:24;101141.97;;;10.28;100.00
54882;BME280;40775;51.448;4.742;2022-12-20T04:48:51;101140.19;;;10.27;100.00
54882;BME280;40775;51.448;4.742;2022-12-20T04:51:26;101134.19;;;10.31;100.00
54882;BME280;40775;51.448;4.742;2022-12-20T04:53:54;101129.81;;;10.31;100.00
54882;BME280;40775;51.448;4.742;2022-12-20T04:56:27;101133.38;;;10.33;100.00
54882;BME280;40775;51.448;4.742;2022-12-20T04:58:56;101131.66;;;10.35;100.00
54882;BME280;40775;51.448;4.742;2022-12-20T05:01:25;101133.44;;;10.36;100.00
54882;BME280;40775;51.448;4.742;2022-12-20T05:03:52;101123.84;;;10.37;100.00
54882;BME280;40775;51.448;4.742;2022-12-20T05:06:19;101114.22;;;10.37;100.00
54882;BME280;40775;51.448;4.742;2022-12-20T05:08:47;101107.25;;;10.38;100.00
54882;BME280;40775;51.448;4.742;2022-12-20T05:11:14;101106.31;;;10.36;100.00
54882;BME280;40775;51.448;4.742;2022-12-20T05:13:41;101105.50;;;10.38;100.00
54882;BME280;40775;51.448;4.742;2022-12-20T05:16:08;101099.47;;;10.41;100.00
54882;BME280;40775;51.448;4.742;2022-12-20T05:18:36;101102.13;;;10.42;100.00
54882;BME280;40775;51.448;4.742;2022-12-20T05:21:08;101096.91;;;10.44;100.00
54882;BME280;40775;51.448;4.742;2022-12-20T05:23:54;101082.94;;;10.45;100.00
54882;BME280;40775;51.448;4.742;2022-12-20T05:26:40;101083.06;;;10.49;100.00
54882;BME280;40775;51.448;4.742;2022-12-20T05:29:07;101079.56;;;10.50;100.00
54882;BME280;40775;51.448;4.742;2022-12-20T05:31:34;101081.38;;;10.53;100.00
54882;BME280;40775;51.448;4.742;2022-12-20T05:34:01;101069.19;;;10.55;100.00
54882;BME280;40775;51.448;4.742;2022-12-20T05:36:28;101068.28;;;10.55;100.00
54882;BME280;40775;51.448;4.742;2022-12-20T05:38:56;101082.38;;;10.58;100.00
54882;BME280;40775;51.448;4.742;2022-12-20T05:41:30;101074.53;;;10.60;100.00
54882;BME280;40775;51.448;4.742;2022-12-20T05:43:57;101063.16;;;10.59;100.00
54882;BME280;40775;51.448;4.742;2022-12-20T05:46:24;101060.56;;;10.61;100.00
54882;BME280;40775;51.448;4.742;2022-12-20T05:48:52;101048.28;;;10.60;100.00
54882;BME280;40775;51.448;4.742;2022-12-20T05:51:19;101049.19;;;10.60;100.00
54882;BME280;40775;51.448;4.742;2022-12-20T05:53:46;101039.50;;;10.58;100.00
54882;BME280;40775;51.448;4.742;2022-12-20T05:56:13;101053.50;;;10.58;100.00
54882;BME280;40775;51.448;4.742;2022-12-20T05:58:40;101044.75;;;10.58;100.00
54882;BME280;40775;51.448;4.742;2022-12-20T06:01:08;101028.06;;;10.56;100.00
54882;BME280;40775;51.448;4.742;2022-12-20T06:03:37;101034.16;;;10.55;100.00
54882;BME280;40775;51.448;4.742;2022-12-20T06:06:06;101023.59;;;10.51;100.00
54882;BME280;40775;51.448;4.742;2022-12-20T06:08:40;101022.75;;;10.52;100.00
54882;BME280;40775;51.448;4.742;2022-12-20T06:11:07;101028.84;;;10.51;100.00
54882;BME280;40775;51.448;4.742;2022-12-20T06:13:34;101028.78;;;10.48;100.00
54882;BME280;40775;51.448;4.742;2022-12-20T06:16:01;101026.13;;;10.47;100.00
54882;BME280;40775;51.448;4.742;2022-12-20T06:18:28;101031.38;;;10.47;100.00
54882;BME280;40775;51.448;4.742;2022-12-20T06:20:55;101026.09;;;10.45;100.00
54882;BME280;40775;51.448;4.742;2022-12-20T06:23:23;101032.19;;;10.44;100.00
54882;BME280;40775;51.448;4.742;2022-12-20T06:25:50;101022.53;;;10.43;100.00
54882;BME280;40775;51.448;4.742;2022-12-20T06:28:17;101027.78;;;10.43;100.00
54882;BME280;40775;51.448;4.742;2022-12-20T06:30:56;101033.88;;;10.41;100.00
54882;BME280;40775;51.448;4.742;2022-12-20T06:33:24;101033.91;;;10.42;100.00
54882;BME280;40775;51.448;4.742;2022-12-20T06:35:51;101026.81;;;10.40;100.00
54882;BME280;40775;51.448;4.742;2022-12-20T06:38:19;101025.06;;;10.40;100.00
54882;BME280;40775;51.448;4.742;2022-12-20T06:40:46;101038.16;;;10.39;100.00
54882;BME280;40775;51.448;4.742;2022-12-20T06:43:13;101031.25;;;10.41;100.00
54882;BME280;40775;51.448;4.742;2022-12-20T06:45:40;101039.16;;;10.81;100.00
54882;BME280;40775;51.448;4.742;2022-12-20T06:48:09;101033.53;;;11.48;100.00
54882;BME280;40775;51.448;4.742;2022-12-20T06:50:39;101035.75;;;11.71;100.00
54882;BME280;40775;51.448;4.742;2022-12-20T06:53:06;101020.44;;;11.94;100.00
54882;BME280;40775;51.448;4.742;2022-12-20T06:55:34;101017.22;;;12.11;100.00
54882;BME280;40775;51.448;4.742;2022-12-20T06:58:02;101017.47;;;12.27;99.99
54882;BME280;40775;51.448;4.742;2022-12-20T07:00:30;101013.25;;;12.35;97.58
54882;BME280;40775;51.448;4.742;2022-12-20T07:02:57;101001.94;;;12.44;95.41
54882;BME280;40775;51.448;4.742;2022-12-20T07:05:24;100997.69;;;12.52;94.15
54882;BME280;40775;51.448;4.742;2022-12-20T07:07:51;100989.84;;;12.57;93.13
54882;BME280;40775;51.448;4.742;2022-12-20T07:10:18;100979.31;;;12.58;91.94
54882;BME280;40775;51.448;4.742;2022-12-20T07:12:45;100989.97;;;12.64;91.08
54882;BME280;40775;51.448;4.742;2022-12-20T07:15:15;100993.53;;;12.68;90.48
54882;BME280;40775;51.448;4.742;2022-12-20T07:17:42;100990.03;;;12.69;90.43
54882;BME280;40775;51.448;4.742;2022-12-20T07:20:10;100983.91;;;12.70;89.66
54882;BME280;40775;51.448;4.742;2022-12-20T07:22:40;100990.06;;;12.71;89.66
54882;BME280;40775;51.448;4.742;2022-12-20T07:25:08;100986.59;;;12.75;89.58
54882;BME280;40775;51.448;4.742;2022-12-20T07:27:35;100988.31;;;12.71;89.18
54882;BME280;40775;51.448;4.742;2022-12-20T07:30:06;100998.84;;;12.73;88.35
54882;BME280;40775;51.448;4.742;2022-12-20T07:32:44;100995.34;;;12.74;88.41
54882;BME280;40775;51.448;4.742;2022-12-20T07:35:20;101012.91;;;12.73;88.34
54882;BME280;40775;51.448;4.742;2022-12-20T07:37:47;101009.44;;;12.76;88.76
54882;BME280;40775;51.448;4.742;2022-12-20T07:40:14;101002.41;;;12.75;87.96
54882;BME280;40775;51.448;4.742;2022-12-20T07:42:42;101009.44;;;12.76;88.12
54882;BME280;40775;51.448;4.742;2022-12-20T07:45:15;101025.25;;;12.76;87.58
54882;BME280;40775;51.448;4.742;2022-12-20T07:47:42;101011.19;;;12.75;87.67
54882;BME280;40775;51.448;4.742;2022-12-20T07:50:10;101019.03;;;12.72;87.11
54882;BME280;40775;51.448;4.742;2022-12-20T07:52:38;101008.50;;;12.72;87.20
54882;BME280;40775;51.448;4.742;2022-12-20T07:55:08;101015.53;;;12.73;87.34
54882;BME280;40775;51.448;4.742;2022-12-20T07:58:04;101021.69;;;12.74;87.00
54882;BME280;40775;51.448;4.742;2022-12-20T08:00:32;101013.78;;;12.74;86.67
54882;BME280;40775;51.448;4.742;2022-12-20T08:03:10;101016.44;;;12.74;86.76
54882;BME280;40775;51.448;4.742;2022-12-20T08:05:43;101009.41;;;12.73;86.33
54882;BME280;40775;51.448;4.742;2022-12-20T08:08:11;101019.03;;;12.72;86.39
54882;BME280;40775;51.448;4.742;2022-12-20T08:10:39;101020.81;;;12.73;85.87
54882;BME280;40775;51.448;4.742;2022-12-20T08:13:07;101012.94;;;12.75;86.01
54882;BME280;40775;51.448;4.742;2022-12-20T08:15:35;101019.06;;;12.74;85.81
54882;BME280;40775;51.448;4.742;2022-12-20T08:18:02;101014.72;;;12.76;85.48
54882;BME280;40775;51.448;4.742;2022-12-20T08:20:32;101012.94;;;12.75;85.58
54882;BME280;40775;51.448;4.742;2022-12-20T08:23:03;101002.41;;;12.75;85.20
54882;BME280;40775;51.448;4.742;2022-12-20T08:25:30;101005.94;;;12.77;85.11
54882;BME280;40775;51.448;4.742;2022-12-20T08:28:05;101003.28;;;12.75;84.74
54882;BME280;40775;51.448;4.742;2022-12-20T08:30:32;101004.16;;;12.76;84.30
54882;BME280;40775;51.448;4.742;2022-12-20T08:32:59;101000.66;;;12.77;84.06
54882;BME280;40775;51.448;4.742;2022-12-20T08:35:26;100998.03;;;12.77;84.21
54882;BME280;40775;51.448;4.742;2022-12-20T08:37:53;101003.31;;;12.78;84.41
54882;BME280;40775;51.448;4.742;2022-12-20T08:40:20;101001.56;;;12.79;83.65
54882;BME280;40775;51.448;4.742;2022-12-20T08:42:47;100991.03;;;12.79;83.91
54882;BME280;40775;51.448;4.742;2022-12-20T08:45:14;100990.16;;;12.78;83.25
54882;BME280;40775;51.448;4.742;2022-12-20T08:47:42;100984.91;;;12.80;83.51
54882;BME280;40775;51.448;4.742;2022-12-20T08:50:09;100989.31;;;12.82;83.12
54882;BME280;40775;51.448;4.742;2022-12-20T08:52:36;100977.00;;;12.81;83.10
54882;BME280;40775;51.448;4.742;2022-12-20T08:55:03;100977.88;;;12.80;82.58
54882;BME280;40775;51.448;4.742;2022-12-20T08:57:31;100981.41;;;12.82;82.58
54882;BME280;40775;51.448;4.742;2022-12-20T08:59:58;100987.56;;;12.83;82.33
54882;BME280;40775;51.448;4.742;2022-12-20T09:02:25;100991.97;;;12.84;82.22
54882;BME280;40775;51.448;4.742;2022-12-20T09:04:52;100990.22;;;12.83;81.92
54882;BME280;40775;51.448;4.742;2022-12-20T09:07:19;100998.09;;;12.83;82.20
54882;BME280;40775;51.448;4.742;2022-12-20T09:09:46;100991.97;;;12.84;81.60
54882;BME280;40775;51.448;4.742;2022-12-20T09:12:13;100984.06;;;12.84;81.86
54882;BME280;40775;51.448;4.742;2022-12-20T09:14:40;100982.31;;;12.84;81.62
54882;BME280;40775;51.448;4.742;2022-12-20T09:17:08;100983.19;;;12.85;81.91
54882;BME280;40775;51.448;4.742;2022-12-20T09:19:35;100988.47;;;12.85;81.87
54882;BME280;40775;51.448;4.742;2022-12-20T09:22:02;100984.94;;;12.83;81.45
54882;BME280;40775;51.448;4.742;2022-12-20T09:24:30;100988.47;;;12.85;81.74
54882;BME280;40775;51.448;4.742;2022-12-20T09:26:57;100984.09;;;12.85;81.50
54882;BME280;40775;51.448;4.742;2022-12-20T09:29:24;100984.09;;;12.85;81.42
54882;BME280;40775;51.448;4.742;2022-12-20T09:32:00;100985.84;;;12.85;81.09
54882;BME280;40775;51.448;4.742;2022-12-20T09:34:27;100993.75;;;12.85;81.26
54882;BME280;40775;51.448;4.742;2022-12-20T09:36:54;100987.59;;;12.84;81.14
54882;BME280;40775;51.448;4.742;2022-12-20T09:39:21;100985.84;;;12.85;81.10
54882;BME280;40775;51.448;4.742;2022-12-20T09:41:48;100991.97;;;12.84;81.13
54882;BME280;40775;51.448;4.742;2022-12-20T09:44:28;100991.09;;;12.85;80.69
54882;BME280;40775;51.448;4.742;2022-12-20T09:47:05;100994.66;;;12.87;80.52
54882;BME280;40775;51.448;4.742;2022-12-20T09:49:41;100984.09;;;12.87;81.05
54882;BME280;40775;51.448;4.742;2022-12-20T09:52:54;100978.81;;;12.85;81.06
54882;BME280;40775;51.448;4.742;2022-12-20T09:55:46;100998.13;;;12.84;80.97
54882;BME280;40775;51.448;4.742;2022-12-20T09:58:24;100994.66;;;12.87;80.50
54882;BME280;40775;51.448;4.742;2022-12-20T10:00:56;100994.66;;;12.87;80.43
54882;BME280;40775;51.448;4.742;2022-12-20T10:03:32;101001.72;;;12.88;80.15
54882;BME280;40775;51.448;4.742;2022-12-20T10:20:57;100991.19;;;12.88;80.34
54882;BME280;40775;51.448;4.742;2022-12-20T10:23:31;100988.53;;;12.88;80.10
54882;BME280;40775;51.448;4.742;2022-12-20T10:26:00;100990.31;;;12.89;79.91
54882;BME280;40775;51.448;4.742;2022-12-20T10:28:30;100990.31;;;12.89;80.14
54882;BME280;40775;51.448;4.742;2022-12-20T10:31:06;100987.69;;;12.89;80.54
54882;BME280;40775;51.448;4.742;2022-12-20T10:33:34;100979.78;;;12.89;80.72
54882;BME280;40775;51.448;4.742;2022-12-20T10:36:19;100970.06;;;12.86;80.58
54882;BME280;40775;51.448;4.742;2022-12-20T10:38:50;100970.94;;;12.87;80.96
54882;BME280;40775;51.448;4.742;2022-12-20T10:41:25;100974.44;;;12.86;80.48
54882;BME280;40775;51.448;4.742;2022-12-20T10:46:48;100961.25;;;12.86;80.32
54882;BME280;40775;51.448;4.742;2022-12-20T10:49:40;100969.19;;;12.87;80.81
54882;BME280;40775;51.448;4.742;2022-12-20T10:54:44;100973.63;;;12.88;80.05
54882;BME280;40775;51.448;4.742;2022-12-20T10:57:20;100963.91;;;12.87;80.10
54882;BME280;40775;51.448;4.742;2022-12-20T10:59:58;100966.59;;;12.89;80.13
54882;BME280;40775;51.448;4.742;2022-12-20T11:02:34;100959.56;;;12.88;80.40
54882;BME280;40775;51.448;4.742;2022-12-20T11:07:58;100957.75;;;12.85;80.54
54882;BME280;40775;51.448;4.742;2022-12-20T11:10:46;100963.88;;;12.84;80.73
54882;BME280;40775;51.448;4.742;2022-12-20T11:13:39;100960.41;;;12.87;80.46
54882;BME280;40775;51.448;4.742;2022-12-20T11:24:35;100954.25;;;12.86;80.62
54882;BME280;40775;51.448;4.742;2022-12-20T11:30:27;100947.22;;;12.87;79.91
54882;BME280;40775;51.448;4.742;2022-12-20T11:33:19;100945.53;;;12.89;79.95
54882;BME280;40775;51.448;4.742;2022-12-20T11:35:58;100942.88;;;12.89;79.87
54882;BME280;40775;51.448;4.742;2022-12-20T11:44:20;100934.13;;;12.91;79.80
54882;BME280;40775;51.448;4.742;2022-12-20T11:53:51;100918.28;;;12.88;80.44
54882;BME280;40775;51.448;4.742;2022-12-20T11:56:35;100926.16;;;12.87;80.63
54882;BME280;40775;51.448;4.742;2022-12-20T11:59:42;100918.25;;;12.87;80.70
54882;BME280;40775;51.448;4.742;2022-12-20T12:02:18;100917.41;;;12.88;80.98
54882;BME280;40775;51.448;4.742;2022-12-20T12:05:00;100917.41;;;12.88;80.90
54882;BME280;40775;51.448;4.742;2022-12-20T12:07:37;100912.97;;;12.87;81.18
54882;BME280;40775;51.448;4.742;2022-12-20T12:10:40;100913.84;;;12.87;81.16
54882;BME280;40775;51.448;4.742;2022-12-20T12:13:15;100910.31;;;12.85;81.32
54882;BME280;40775;51.448;4.742;2022-12-20T12:18:30;100913.84;;;12.87;81.43
54882;BME280;40775;51.448;4.742;2022-12-20T12:21:10;100912.97;;;12.87;81.22
54882;BME280;40775;51.448;4.742;2022-12-20T12:26:36;100908.63;;;12.89;81.24
54882;BME280;40775;51.448;4.742;2022-12-20T12:29:13;100906.00;;;12.89;81.58
54882;BME280;40775;51.448;4.742;2022-12-20T12:32:07;100907.69;;;12.87;81.51
54882;BME280;40775;51.448;4.742;2022-12-20T12:35:02;100912.16;;;12.89;81.38
54882;BME280;40775;51.448;4.742;2022-12-20T12:44:38;100904.25;;;12.89;81.36
54882;BME280;40775;51.448;4.742;2022-12-20T12:47:31;100911.25;;;12.89;81.54
54882;BME280;40775;51.448;4.742;2022-12-20T12:50:02;100906.00;;;12.89;81.52
54882;BME280;40775;51.448;4.742;2022-12-20T12:52:55;100898.97;;;12.88;81.61
54882;BME280;40775;51.448;4.742;2022-12-20T12:55:50;100911.25;;;12.89;81.77
54882;BME280;40775;51.448;4.742;2022-12-20T12:58:32;100914.78;;;12.88;82.14
54882;BME280;40775;51.448;4.742;2022-12-20T13:01:04;100912.13;;;12.88;81.83
54882;BME280;40775;51.448;4.742;2022-12-20T13:11:36;100911.25;;;12.89;82.14
54882;BME280;40775;51.448;4.742;2022-12-20T13:19:55;100898.13;;;12.92;81.55
54882;BME280;40775;51.448;4.742;2022-12-20T13:22:25;100910.44;;;12.93;81.62
54882;BME280;40775;51.448;4.742;2022-12-20T13:25:02;100901.66;;;12.92;81.26
54882;BME280;40775;51.448;4.742;2022-12-20T13:27:38;100908.69;;;12.95;81.37
54882;BME280;40775;51.448;4.742;2022-12-20T13:32:55;100899.91;;;12.94;81.14
54882;BME280;40775;51.448;4.742;2022-12-20T13:40:47;100896.38;;;12.94;80.81
54882;BME280;40775;51.448;4.742;2022-12-20T13:46:17;100890.25;;;12.95;81.01
54882;BME280;40775;51.448;4.742;2022-12-20T13:49:03;100888.47;;;12.94;81.02
54882;BME280;40775;51.448;4.742;2022-12-20T13:51:31;100886.72;;;12.93;80.85
54882;BME280;40775;51.448;4.742;2022-12-20T13:54:05;100890.25;;;12.95;80.72
54882;BME280;40775;51.448;4.742;2022-12-20T13:56:49;100891.13;;;12.95;80.88
54882;BME280;40775;51.448;4.742;2022-12-20T13:59:19;100890.25;;;12.95;81.18
54882;BME280;40775;51.448;4.742;2022-12-20T14:01:51;100900.78;;;12.95;81.09
54882;BME280;40775;51.448;4.742;2022-12-20T14:04:20;100898.16;;;12.95;81.42
54882;BME280;40775;51.448;4.742;2022-12-20T14:06:58;100899.03;;;12.95;80.58
54882;BME280;40775;51.448;4.742;2022-12-20T14:09:36;100885.88;;;12.95;80.88
54882;BME280;40775;51.448;4.742;2022-12-20T14:12:15;100885.88;;;12.95;80.86
54882;BME280;40775;51.448;4.742;2022-12-20T14:14:52;100884.97;;;12.95;80.75
54882;BME280;40775;51.448;4.742;2022-12-20T14:17:31;100892.88;;;12.95;80.95
54882;BME280;40775;51.448;4.742;2022-12-20T14:20:13;100896.41;;;12.95;80.94
54882;BME280;40775;51.448;4.742;2022-12-20T14:23:05;100887.63;;;12.95;80.73
54882;BME280;40775;51.448;4.742;2022-12-20T14:26:06;100879.72;;;12.96;80.70
54882;BME280;40775;51.448;4.742;2022-12-20T14:28:47;100881.47;;;12.96;80.39
54882;BME280;40775;51.448;4.742;2022-12-20T14:31:43;100881.47;;;12.94;80.10
54882;BME280;40775;51.448;4.742;2022-12-20T14:36:42;100887.63;;;12.96;80.06
54882;BME280;40775;51.448;4.742;2022-12-20T14:39:33;100883.25;;;12.97;79.99
54882;BME280;40775;51.448;4.742;2022-12-20T14:42:21;100878.88;;;12.99;80.16
54882;BME280;40775;51.448;4.742;2022-12-20T14:44:48;100880.63;;;12.97;80.25
54882;BME280;40775;51.448;4.742;2022-12-20T14:47:24;100878.84;;;12.94;79.68
54882;BME280;40775;51.448;4.742;2022-12-20T14:49:58;100877.09;;;12.98;79.92
54882;BME280;40775;51.448;4.742;2022-12-20T14:52:35;100870.06;;;12.97;79.56
54882;BME280;40775;51.448;4.742;2022-12-20T14:55:19;100870.94;;;12.97;79.56